Terminal Aerodrome Forecast
Issued by NWS

Home | Current Version | Previous Version | Text Only | Print | Product List | Glossary Off
Versions: 1 2 3 4 5 6 7 8 9 10 11 12 13 14 15 16 17

000
FTUS43 KFGF 271500 AAA
TAFBJI
TAF AMD
KBJI 271509Z 2715/2812 35014KT P6SM BKN035
      TEMPO 2715/2718 -RA BKN020
     FM280200 32013KT P6SM BKN050=

USA.gov is the U.S. government's official web portal to all federal, state and local government web resources and services.